Time;durP1;ratioP1;P1;durP2;ratioP2;P2;SDS_P1;SDS_P2;PMS_P1;PMS_P2;Temp;Humidity;BMP_temperature;BMP_pressure;BME280_temperature;BME280_humidity;BME280_pressure;Samples;Min_cycle;Max_cycle;Signal;HPM_P1;HPM_P2
2022/10/29 00:00:35;;;;;;;5.65;1.50;;;;;;;;;;5018972;28;20540;-59
2022/10/29 00:03:00;;;;;;;5.47;1.63;;;;;;;;;;5012220;28;20121;-59
2022/10/29 00:05:26;;;;;;;2.65;1.50;;;;;;;;;;5015300;28;20048;-59
2022/10/29 00:07:51;;;;;;;5.60;1.60;;;;;;;;;;5014521;28;20049;-60
2022/10/29 00:10:16;;;;;;;4.32;1.60;;;;;;;;;;5015708;28;20061;-59
2022/10/29 00:12:42;;;;;;;5.18;1.67;;;;;;;;;;5014428;28;20069;-59
2022/10/29 00:15:08;;;;;;;2.42;1.40;;;;;;;;;;5015433;28;20022;-64
2022/10/29 00:17:33;;;;;;;3.53;1.52;;;;;;;;;;5019167;28;20037;-59
2022/10/29 00:19:58;;;;;;;4.05;1.50;;;;;;;;;;5014000;28;20032;-60
2022/10/29 00:22:24;;;;;;;3.03;1.50;;;;;;;;;;5019511;28;20072;-60
2022/10/29 00:24:49;;;;;;;4.55;1.65;;;;;;;;;;5009858;28;20045;-59
2022/10/29 00:27:15;;;;;;;3.20;1.33;;;;;;;;;;5014162;28;20034;-59
2022/10/29 00:29:40;;;;;;;3.17;1.50;;;;;;;;;;5010350;28;20065;-59
2022/10/29 00:32:06;;;;;;;2.95;1.20;;;;;;;;;;5015123;28;20129;-60
2022/10/29 00:34:31;;;;;;;4.25;1.60;;;;;;;;;;5014454;28;20494;-59
2022/10/29 00:36:56;;;;;;;2.85;1.40;;;;;;;;;;5015956;28;20371;-59
2022/10/29 00:39:22;;;;;;;3.17;1.38;;;;;;;;;;5014801;28;20037;-59
2022/10/29 00:41:47;;;;;;;6.07;1.50;;;;;;;;;;5003565;28;20029;-59
2022/10/29 00:44:21;;;;;;;3.60;1.50;;;;;;;;;;5015001;28;20041;-59
2022/10/29 00:46:50;;;;;;;2.70;1.38;;;;;;;;;;5013564;28;20406;-59
2022/10/29 00:49:16;;;;;;;2.65;1.38;;;;;;;;;;5023044;28;20068;-59
2022/10/29 00:51:42;;;;;;;3.40;1.30;;;;;;;;;;5024336;28;20069;-62
2022/10/29 00:54:09;;;;;;;3.90;1.40;;;;;;;;;;5013547;28;20057;-59
2022/10/29 00:56:37;;;;;;;5.90;1.38;;;;;;;;;;5013442;28;20045;-59
2022/10/29 00:59:04;;;;;;;2.92;1.48;;;;;;;;;;5013465;28;20038;-59
2022/10/29 01:01:29;;;;;;;2.28;1.13;;;;;;;;;;5004228;28;20042;-59
2022/10/29 01:03:55;;;;;;;6.47;1.40;;;;;;;;;;5007508;28;20512;-62
2022/10/29 01:06:22;;;;;;;5.88;1.42;;;;;;;;;;5014682;28;20041;-59
2022/10/29 01:08:47;;;;;;;5.53;1.63;;;;;;;;;;5014425;28;20042;-59
2022/10/29 01:11:25;;;;;;;3.47;1.45;;;;;;;;;;5013783;28;20051;-59
2022/10/29 01:14:09;;;;;;;2.80;1.30;;;;;;;;;;5020793;28;20050;-59
2022/10/29 01:16:37;;;;;;;2.35;1.33;;;;;;;;;;5009099;28;20382;-59
2022/10/29 01:19:36;;;;;;;4.18;1.20;;;;;;;;;;5007241;28;20049;-59
2022/10/29 01:22:11;;;;;;;3.03;1.38;;;;;;;;;;5003320;28;20074;-59
2022/10/29 01:25:27;;;;;;;2.53;1.30;;;;;;;;;;5012902;28;20061;-59
2022/10/29 01:28:13;;;;;;;3.95;1.48;;;;;;;;;;4986812;28;20053;-60
2022/10/29 01:31:16;;;;;;;3.05;1.50;;;;;;;;;;5006069;28;20087;-59
2022/10/29 01:34:12;;;;;;;4.82;1.33;;;;;;;;;;5009548;28;20073;-59
2022/10/29 01:36:57;;;;;;;2.38;1.10;;;;;;;;;;5014210;28;20046;-59
2022/10/29 01:39:31;;;;;;;2.42;1.27;;;;;;;;;;5024038;28;20058;-59
2022/10/29 01:42:02;;;;;;;4.10;1.98;;;;;;;;;;5012864;28;20458;-59
2022/10/29 01:45:03;;;;;;;3.17;1.35;;;;;;;;;;5016248;28;20042;-59
2022/10/29 01:47:33;;;;;;;2.72;1.50;;;;;;;;;;4990607;28;20453;-60
2022/10/29 01:50:02;;;;;;;3.13;1.23;;;;;;;;;;5012575;28;20473;-59
2022/10/29 01:52:31;;;;;;;2.53;1.25;;;;;;;;;;5014154;28;20029;-59
2022/10/29 01:54:56;;;;;;;2.47;1.30;;;;;;;;;;5030350;28;20484;-59
2022/10/29 01:57:37;;;;;;;5.28;1.48;;;;;;;;;;5014759;28;20038;-60
2022/10/29 02:00:12;;;;;;;2.38;1.05;;;;;;;;;;5011407;28;20043;-59
2022/10/29 02:03:00;;;;;;;3.38;1.20;;;;;;;;;;5010253;28;20076;-59
2022/10/29 02:05:28;;;;;;;4.18;1.00;;;;;;;;;;5012045;28;20073;-60
2022/10/29 02:07:59;;;;;;;3.05;1.30;;;;;;;;;;5024178;28;20133;-59
2022/10/29 02:10:44;;;;;;;2.38;1.20;;;;;;;;;;5018252;28;20113;-59
2022/10/29 02:13:10;;;;;;;2.38;1.13;;;;;;;;;;5021564;28;20034;-59
2022/10/29 02:15:48;;;;;;;3.50;1.33;;;;;;;;;;5011645;28;20041;-59
2022/10/29 02:18:14;;;;;;;1.88;1.00;;;;;;;;;;4997610;28;20037;-59
2022/10/29 02:20:41;;;;;;;2.10;1.00;;;;;;;;;;5023811;28;20100;-59
2022/10/29 02:23:07;;;;;;;2.20;1.13;;;;;;;;;;5000125;28;20038;-59
2022/10/29 02:25:32;;;;;;;3.30;1.33;;;;;;;;;;5016577;28;20473;-59
2022/10/29 02:27:57;;;;;;;3.65;1.50;;;;;;;;;;5016388;28;20112;-59
2022/10/29 02:30:23;;;;;;;2.95;1.20;;;;;;;;;;5018048;28;20109;-61
2022/10/29 02:32:48;;;;;;;2.00;1.15;;;;;;;;;;5015380;28;20073;-59
2022/10/29 02:35:14;;;;;;;2.65;1.17;;;;;;;;;;5012138;28;20041;-59
2022/10/29 02:37:39;;;;;;;3.25;1.40;;;;;;;;;;5015823;28;20061;-59
2022/10/29 02:40:05;;;;;;;2.45;1.10;;;;;;;;;;5017910;28;20482;-59
2022/10/29 02:42:30;;;;;;;2.15;1.08;;;;;;;;;;5016088;28;20048;-59
2022/10/29 02:44:56;;;;;;;2.22;1.05;;;;;;;;;;5016158;28;20852;-60
2022/10/29 02:47:21;;;;;;;3.45;1.10;;;;;;;;;;5016393;28;20125;-60
2022/10/29 02:49:46;;;;;;;2.53;1.20;;;;;;;;;;5018147;28;20042;-59
2022/10/29 02:52:12;;;;;;;2.13;1.20;;;;;;;;;;5016515;28;20037;-59
2022/10/29 02:54:38;;;;;;;2.00;1.05;;;;;;;;;;5016488;28;20408;-59
2022/10/29 02:57:03;;;;;;;2.45;1.30;;;;;;;;;;5016743;28;20069;-59
2022/10/29 02:59:29;;;;;;;3.88;1.27;;;;;;;;;;5020835;28;20454;-59
2022/10/29 03:01:54;;;;;;;2.03;1.05;;;;;;;;;;5021639;28;20061;-59
2022/10/29 03:04:19;;;;;;;3.30;0.98;;;;;;;;;;5012333;28;20042;-59
2022/10/29 03:06:45;;;;;;;2.00;1.00;;;;;;;;;;5015861;28;20037;-61
2022/10/29 03:09:10;;;;;;;3.80;1.00;;;;;;;;;;5016353;28;20441;-59
2022/10/29 03:11:36;;;;;;;2.97;1.10;;;;;;;;;;5009518;28;20040;-59
2022/10/29 03:14:01;;;;;;;2.00;1.05;;;;;;;;;;5013091;28;20120;-59
2022/10/29 03:16:27;;;;;;;2.58;1.10;;;;;;;;;;5017693;28;20046;-59
2022/10/29 03:18:52;;;;;;;3.25;1.20;;;;;;;;;;5010791;28;20448;-59
2022/10/29 03:21:17;;;;;;;2.00;1.08;;;;;;;;;;5012355;28;20068;-59
2022/10/29 03:23:43;;;;;;;2.17;1.00;;;;;;;;;;5018714;28;20375;-61
2022/10/29 03:26:09;;;;;;;1.52;0.90;;;;;;;;;;5015789;28;20077;-59
2022/10/29 03:28:35;;;;;;;1.65;0.90;;;;;;;;;;5012077;28;20030;-59
2022/10/29 03:31:01;;;;;;;2.40;0.90;;;;;;;;;;5017076;28;20052;-59
2022/10/29 03:33:26;;;;;;;2.78;1.10;;;;;;;;;;5002136;28;20113;-59
2022/10/29 03:35:59;;;;;;;1.65;0.90;;;;;;;;;;5017778;28;20519;-59
2022/10/29 03:38:25;;;;;;;2.00;0.80;;;;;;;;;;5030870;28;20069;-60
2022/10/29 03:40:51;;;;;;;1.90;0.95;;;;;;;;;;5016276;28;20068;-59
2022/10/29 03:43:17;;;;;;;2.22;1.02;;;;;;;;;;5014891;28;20544;-60
2022/10/29 03:45:42;;;;;;;2.58;0.90;;;;;;;;;;5027705;28;20063;-60
2022/10/29 03:48:07;;;;;;;3.08;1.10;;;;;;;;;;5017155;28;20042;-59
2022/10/29 03:50:33;;;;;;;2.05;0.98;;;;;;;;;;5026193;28;20044;-59
2022/10/29 03:52:58;;;;;;;2.35;1.10;;;;;;;;;;5015572;28;20064;-59
2022/10/29 03:55:24;;;;;;;3.28;1.13;;;;;;;;;;5024122;28;20033;-59
2022/10/29 03:57:49;;;;;;;2.72;0.98;;;;;;;;;;5014677;28;20045;-64
2022/10/29 04:00:15;;;;;;;5.82;1.10;;;;;;;;;;5021364;28;20033;-59
2022/10/29 04:02:40;;;;;;;2.47;0.90;;;;;;;;;;5013859;28;20124;-59
2022/10/29 04:05:06;;;;;;;2.17;0.90;;;;;;;;;;5014752;28;20511;-59
2022/10/29 04:07:31;;;;;;;1.63;0.85;;;;;;;;;;5012400;28;20042;-59
2022/10/29 04:09:57;;;;;;;1.80;0.93;;;;;;;;;;5016298;28;20486;-59
2022/10/29 04:12:22;;;;;;;1.95;1.00;;;;;;;;;;5014167;28;20034;-63
2022/10/29 04:14:47;;;;;;;1.73;1.00;;;;;;;;;;5015027;28;20052;-59
2022/10/29 04:17:13;;;;;;;2.08;1.00;;;;;;;;;;5015972;28;20037;-59
2022/10/29 04:19:39;;;;;;;2.22;1.00;;;;;;;;;;5015193;28;20034;-61
2022/10/29 04:22:05;;;;;;;1.60;0.80;;;;;;;;;;5012677;28;20046;-59
2022/10/29 04:24:30;;;;;;;2.45;0.90;;;;;;;;;;5018356;28;20120;-59
2022/10/29 04:26:55;;;;;;;2.13;0.90;;;;;;;;;;5020996;28;20038;-59
2022/10/29 04:29:21;;;;;;;2.33;0.88;;;;;;;;;;5011665;28;20046;-59
2022/10/29 04:31:46;;;;;;;2.05;0.90;;;;;;;;;;5025257;28;20040;-61
2022/10/29 04:34:12;;;;;;;1.52;0.77;;;;;;;;;;5002024;28;20037;-59
2022/10/29 04:36:37;;;;;;;2.20;0.90;;;;;;;;;;5011794;28;20026;-59
2022/10/29 04:39:03;;;;;;;3.28;0.98;;;;;;;;;;5009768;28;20393;-59
2022/10/29 04:41:28;;;;;;;2.65;0.98;;;;;;;;;;5013125;28;20030;-59
2022/10/29 04:43:53;;;;;;;1.65;0.82;;;;;;;;;;5008301;28;20153;-59
2022/10/29 04:46:19;;;;;;;1.83;0.80;;;;;;;;;;5018760;28;20393;-59
2022/10/29 04:48:44;;;;;;;1.17;0.70;;;;;;;;;;5010735;28;20042;-59
2022/10/29 04:51:24;;;;;;;3.17;1.00;;;;;;;;;;5019858;28;20503;-59
2022/10/29 04:53:50;;;;;;;1.58;0.90;;;;;;;;;;5010527;28;20498;-60
2022/10/29 04:56:16;;;;;;;1.65;0.82;;;;;;;;;;5018136;28;20066;-59
2022/10/29 04:58:41;;;;;;;2.13;0.82;;;;;;;;;;5018587;28;20115;-59
2022/10/29 05:01:06;;;;;;;3.00;0.90;;;;;;;;;;5014571;28;20091;-59
2022/10/29 05:03:32;;;;;;;1.38;0.80;;;;;;;;;;5007623;28;20038;-59
2022/10/29 05:05:58;;;;;;;1.50;0.80;;;;;;;;;;5013690;28;20097;-59
2022/10/29 05:08:23;;;;;;;2.92;0.80;;;;;;;;;;5014592;28;20494;-59
2022/10/29 05:10:49;;;;;;;1.77;0.80;;;;;;;;;;5014828;28;20057;-60
2022/10/29 05:13:15;;;;;;;1.75;0.80;;;;;;;;;;5013761;28;20049;-59
2022/10/29 05:15:41;;;;;;;1.70;0.90;;;;;;;;;;5011564;28;20042;-59
2022/10/29 05:18:07;;;;;;;1.70;0.85;;;;;;;;;;4996447;28;20109;-59
2022/10/29 05:20:33;;;;;;;1.27;0.60;;;;;;;;;;5016224;28;20052;-59
2022/10/29 05:22:58;;;;;;;1.13;0.63;;;;;;;;;;5013831;28;20453;-59
2022/10/29 05:25:24;;;;;;;1.63;0.80;;;;;;;;;;5012757;28;20050;-59
2022/10/29 05:27:49;;;;;;;1.50;0.90;;;;;;;;;;4997789;28;20053;-60
2022/10/29 05:30:15;;;;;;;3.20;0.90;;;;;;;;;;5016015;28;20091;-60
2022/10/29 05:32:40;;;;;;;1.60;0.80;;;;;;;;;;5013822;28;20109;-60
2022/10/29 05:35:06;;;;;;;2.42;0.80;;;;;;;;;;5013630;28;20453;-59
2022/10/29 05:37:31;;;;;;;1.50;0.80;;;;;;;;;;5019025;28;20028;-59
2022/10/29 05:39:56;;;;;;;2.13;0.80;;;;;;;;;;5012068;28;20420;-59
2022/10/29 05:42:22;;;;;;;1.70;0.80;;;;;;;;;;5010004;28;20029;-59
2022/10/29 05:44:47;;;;;;;1.20;0.73;;;;;;;;;;5022254;28;20034;-59
2022/10/29 05:47:13;;;;;;;1.77;0.90;;;;;;;;;;5019111;28;20125;-59
2022/10/29 05:49:38;;;;;;;1.52;0.70;;;;;;;;;;5018280;28;20033;-65
2022/10/29 05:52:03;;;;;;;1.23;0.68;;;;;;;;;;5018279;28;20037;-59
2022/10/29 05:54:29;;;;;;;1.35;0.70;;;;;;;;;;5018196;28;20045;-59
2022/10/29 05:56:54;;;;;;;1.55;0.82;;;;;;;;;;5015399;28;20176;-59
2022/10/29 05:59:20;;;;;;;1.15;0.65;;;;;;;;;;5011554;28;20044;-59
2022/10/29 06:01:45;;;;;;;2.00;0.90;;;;;;;;;;5018186;28;20042;-58
2022/10/29 06:04:10;;;;;;;1.10;0.55;;;;;;;;;;5019430;28;20045;-59
2022/10/29 06:06:37;;;;;;;0.85;0.60;;;;;;;;;;5017817;28;20045;-59
2022/10/29 06:09:03;;;;;;;1.52;0.82;;;;;;;;;;5017918;28;20050;-60
2022/10/29 06:11:28;;;;;;;1.35;0.60;;;;;;;;;;5016295;28;20390;-63
2022/10/29 06:13:54;;;;;;;1.52;0.70;;;;;;;;;;5016206;28;20124;-59
2022/10/29 06:16:20;;;;;;;1.95;0.80;;;;;;;;;;5018332;28;20047;-59
2022/10/29 06:18:45;;;;;;;1.83;0.88;;;;;;;;;;5017739;28;20053;-58
2022/10/29 06:21:11;;;;;;;1.90;0.80;;;;;;;;;;5017515;28;20034;-59
2022/10/29 06:23:36;;;;;;;2.10;0.93;;;;;;;;;;5016694;28;20540;-61
2022/10/29 06:26:02;;;;;;;1.50;0.82;;;;;;;;;;5017571;28;20418;-58
2022/10/29 06:28:27;;;;;;;1.75;0.90;;;;;;;;;;5020011;28;20056;-59
2022/10/29 06:30:53;;;;;;;1.20;0.70;;;;;;;;;;5008201;28;20041;-59
2022/10/29 06:33:19;;;;;;;2.05;0.82;;;;;;;;;;5006662;28;20362;-59
2022/10/29 06:35:44;;;;;;;1.52;0.70;;;;;;;;;;5010035;28;20033;-59
2022/10/29 06:38:10;;;;;;;1.30;0.60;;;;;;;;;;5016290;28;20125;-59
2022/10/29 06:40:35;;;;;;;1.52;0.80;;;;;;;;;;5013022;28;20406;-59
2022/10/29 06:43:03;;;;;;;1.15;0.63;;;;;;;;;;5006042;28;20034;-59
2022/10/29 06:45:29;;;;;;;1.83;0.80;;;;;;;;;;5014091;28;20117;-59
2022/10/29 06:47:54;;;;;;;1.40;0.73;;;;;;;;;;5015143;28;20046;-59
2022/10/29 06:50:20;;;;;;;2.15;0.70;;;;;;;;;;5028556;28;20037;-59
2022/10/29 06:53:01;;;;;;;2.80;0.70;;;;;;;;;;5015621;28;20100;-58
2022/10/29 06:55:27;;;;;;;1.75;0.80;;;;;;;;;;5023158;28;20033;-59
2022/10/29 06:58:01;;;;;;;1.20;0.70;;;;;;;;;;5016276;28;20045;-59
2022/10/29 07:00:27;;;;;;;1.58;0.80;;;;;;;;;;5016191;28;20041;-58
2022/10/29 07:02:53;;;;;;;1.42;0.63;;;;;;;;;;5014604;28;20034;-60
2022/10/29 07:05:19;;;;;;;3.40;0.77;;;;;;;;;;5016699;28;20033;-59
2022/10/29 07:07:44;;;;;;;2.47;0.90;;;;;;;;;;5013644;28;20050;-60
2022/10/29 07:10:11;;;;;;;1.35;0.70;;;;;;;;;;5006508;28;20034;-58
2022/10/29 07:12:41;;;;;;;4.20;1.00;;;;;;;;;;5012040;28;20127;-62
2022/10/29 07:15:06;;;;;;;1.95;1.00;;;;;;;;;;5015365;28;20025;-58
2022/10/29 07:17:32;;;;;;;2.53;0.90;;;;;;;;;;5001134;28;20291;-59
2022/10/29 07:19:57;;;;;;;1.63;0.75;;;;;;;;;;5012852;28;20049;-59
2022/10/29 07:22:23;;;;;;;6.53;1.00;;;;;;;;;;5015971;28;20077;-59
2022/10/29 07:24:48;;;;;;;4.65;0.95;;;;;;;;;;5003522;28;20490;-59
2022/10/29 07:27:13;;;;;;;2.00;1.05;;;;;;;;;;5013620;28;20034;-69
2022/10/29 07:29:39;;;;;;;2.13;0.80;;;;;;;;;;5016380;28;20421;-59
2022/10/29 07:32:04;;;;;;;2.58;0.70;;;;;;;;;;5019348;28;20913;-57
2022/10/29 07:34:29;;;;;;;1.25;0.70;;;;;;;;;;5018833;28;20037;-57
2022/10/29 07:36:55;;;;;;;2.35;0.77;;;;;;;;;;5014161;28;20037;-57
2022/10/29 07:39:21;;;;;;;1.42;0.80;;;;;;;;;;5015925;28;20084;-59
2022/10/29 07:41:46;;;;;;;2.75;0.80;;;;;;;;;;5016404;28;20157;-62
2022/10/29 07:44:12;;;;;;;1.92;0.70;;;;;;;;;;5013777;28;20470;-58
2022/10/29 07:46:37;;;;;;;2.28;1.00;;;;;;;;;;5014086;28;20092;-58
2022/10/29 07:49:03;;;;;;;3.25;0.85;;;;;;;;;;5012061;28;20034;-59
2022/10/29 07:51:28;;;;;;;3.17;0.80;;;;;;;;;;5004453;28;20289;-68
2022/10/29 07:53:54;;;;;;;3.75;0.80;;;;;;;;;;5025969;28;20137;-60
2022/10/29 07:56:19;;;;;;;2.15;0.68;;;;;;;;;;5010380;28;20122;-60
2022/10/29 07:58:44;;;;;;;2.35;0.80;;;;;;;;;;5013254;28;20037;-62
2022/10/29 08:01:10;;;;;;;3.85;0.90;;;;;;;;;;4998988;28;20049;-60
2022/10/29 08:03:35;;;;;;;4.72;0.80;;;;;;;;;;5002963;28;20065;-59
2022/10/29 08:06:01;;;;;;;2.35;0.90;;;;;;;;;;5003836;28;20121;-60
2022/10/29 08:08:26;;;;;;;2.08;0.80;;;;;;;;;;5014224;28;20042;-60
2022/10/29 08:10:51;;;;;;;2.17;1.13;;;;;;;;;;5013188;28;20068;-60
2022/10/29 08:13:17;;;;;;;6.72;1.15;;;;;;;;;;5022083;28;20030;-61
2022/10/29 08:15:45;;;;;;;1.75;0.80;;;;;;;;;;5015765;28;20095;-60
2022/10/29 08:18:14;;;;;;;1.88;1.00;;;;;;;;;;5015410;28;20080;-63
2022/10/29 08:20:40;;;;;;;2.35;0.98;;;;;;;;;;5014339;28;20037;-63
2022/10/29 08:23:05;;;;;;;3.42;1.00;;;;;;;;;;5013269;28;20526;-62
2022/10/29 08:25:30;;;;;;;2.28;1.00;;;;;;;;;;5014244;28;20045;-60
2022/10/29 08:28:00;;;;;;;2.30;0.90;;;;;;;;;;5015963;28;20040;-63
2022/10/29 08:30:26;;;;;;;2.38;1.05;;;;;;;;;;5015896;28;20440;-60
2022/10/29 08:32:51;;;;;;;3.67;1.08;;;;;;;;;;5007207;28;20049;-65
2022/10/29 08:35:17;;;;;;;1.73;0.95;;;;;;;;;;5012327;28;20033;-60
2022/10/29 08:37:43;;;;;;;4.10;1.20;;;;;;;;;;5019179;28;20579;-60
2022/10/29 08:40:21;;;;;;;3.10;1.00;;;;;;;;;;5011577;28;20489;-60
2022/10/29 08:43:18;;;;;;;1.60;0.82;;;;;;;;;;4995158;28;20050;-61
2022/10/29 08:45:47;;;;;;;5.05;1.10;;;;;;;;;;5013199;28;20398;-61
2022/10/29 08:48:34;;;;;;;1.48;0.88;;;;;;;;;;5030661;28;20045;-61
2022/10/29 08:51:14;;;;;;;1.90;1.08;;;;;;;;;;5009046;28;20073;-61
2022/10/29 08:53:44;;;;;;;1.55;1.00;;;;;;;;;;5013129;28;20069;-64
2022/10/29 08:56:22;;;;;;;5.85;1.23;;;;;;;;;;5012985;28;20041;-60
2022/10/29 08:59:06;;;;;;;14.73;1.20;;;;;;;;;;5032337;28;20164;-60
2022/10/29 09:01:31;;;;;;;8.13;1.00;;;;;;;;;;5010542;28;20493;-60
2022/10/29 09:03:57;;;;;;;2.90;1.00;;;;;;;;;;4995002;28;20066;-60
2022/10/29 09:06:37;;;;;;;1.88;0.90;;;;;;;;;;5017417;28;20474;-60
2022/10/29 09:09:40;;;;;;;3.80;0.80;;;;;;;;;;5003110;28;20060;-61
2022/10/29 09:12:14;;;;;;;1.90;0.70;;;;;;;;;;5011759;28;20041;-60
2022/10/29 09:14:53;;;;;;;2.00;0.93;;;;;;;;;;5009499;28;20136;-60
2022/10/29 09:17:25;;;;;;;1.33;0.85;;;;;;;;;;5012666;28;20077;-60
2022/10/29 09:19:51;;;;;;;3.40;0.98;;;;;;;;;;5009699;28;21054;-60
2022/10/29 09:22:23;;;;;;;3.10;1.33;;;;;;;;;;5005314;28;20050;-60
2022/10/29 09:25:05;;;;;;;3.53;1.00;;;;;;;;;;5013468;28;20026;-59
2022/10/29 09:27:55;;;;;;;2.45;1.02;;;;;;;;;;5006425;28;20069;-60
2022/10/29 09:30:20;;;;;;;2.03;1.00;;;;;;;;;;5009675;28;20030;-64
2022/10/29 09:33:06;;;;;;;3.83;1.00;;;;;;;;;;5014484;28;20050;-61
2022/10/29 09:35:46;;;;;;;3.17;1.60;;;;;;;;;;5014795;28;20064;-60
2022/10/29 09:38:21;;;;;;;2.45;0.90;;;;;;;;;;5018551;28;20045;-61
2022/10/29 09:40:47;;;;;;;12.93;1.38;;;;;;;;;;5011882;28;20645;-60
2022/10/29 09:43:34;;;;;;;16.55;1.30;;;;;;;;;;5008839;28;20498;-66
2022/10/29 09:46:27;;;;;;;2.20;1.15;;;;;;;;;;5009322;28;20038;-61
2022/10/29 09:49:10;;;;;;;8.07;1.08;;;;;;;;;;5011666;28;20080;-59
2022/10/29 09:51:56;;;;;;;;;;;;;;;;;;5014272;28;20041;-59
2022/10/29 09:54:26;;;;;;;2.30;1.00;;;;;;;;;;5015206;28;19921;-61
2022/10/29 09:56:52;;;;;;;2.30;1.10;;;;;;;;;;5014093;28;20045;-60
2022/10/29 09:59:25;;;;;;;2.63;1.10;;;;;;;;;;5020170;28;20538;-60
2022/10/29 10:01:51;;;;;;;1.80;1.10;;;;;;;;;;5013797;28;20092;-60
2022/10/29 10:04:22;;;;;;;2.65;1.00;;;;;;;;;;5012643;28;20034;-59
2022/10/29 10:07:10;;;;;;;2.70;0.93;;;;;;;;;;5039999;28;20120;-61
2022/10/29 10:09:51;;;;;;;5.95;1.30;;;;;;;;;;5017380;28;20068;-60
2022/10/29 10:12:18;;;;;;;5.82;1.10;;;;;;;;;;5008345;28;20049;-71
2022/10/29 10:14:45;;;;;;;2.50;1.10;;;;;;;;;;5017862;28;20033;-58
2022/10/29 10:17:10;;;;;;;8.15;1.05;;;;;;;;;;5020985;28;20076;-58
2022/10/29 10:19:42;;;;;;;6.85;1.15;;;;;;;;;;5012621;28;20074;-62
2022/10/29 10:22:16;;;;;;;3.42;1.15;;;;;;;;;;5023927;28;20033;-58
2022/10/29 10:24:42;;;;;;;5.13;1.10;;;;;;;;;;5008669;28;20069;-59
2022/10/29 10:27:16;;;;;;;3.08;1.20;;;;;;;;;;5011220;28;20076;-58
2022/10/29 10:29:42;;;;;;;6.18;1.17;;;;;;;;;;5011152;28;20050;-58
2022/10/29 10:32:07;;;;;;;2.50;1.23;;;;;;;;;;5019477;28;20050;-58
2022/10/29 10:34:33;;;;;;;2.60;1.08;;;;;;;;;;5012197;28;20053;-58
2022/10/29 10:37:12;;;;;;;2.53;1.20;;;;;;;;;;5009036;28;20034;-57
2022/10/29 10:39:42;;;;;;;5.38;1.40;;;;;;;;;;5006895;28;20042;-58
2022/10/29 10:42:21;;;;;;;3.13;1.10;;;;;;;;;;5016982;28;20034;-57
2022/10/29 10:44:56;;;;;;;3.67;1.20;;;;;;;;;;5017250;28;20034;-58
2022/10/29 10:47:25;;;;;;;1.80;1.10;;;;;;;;;;5013411;28;20069;-58
2022/10/29 10:49:51;;;;;;;3.00;1.17;;;;;;;;;;5010113;28;20046;-58
2022/10/29 10:52:29;;;;;;;3.72;1.30;;;;;;;;;;5024119;28;20049;-57
2022/10/29 10:55:28;;;;;;;2.17;1.00;;;;;;;;;;5012956;28;21083;-57
2022/10/29 10:58:19;;;;;;;1.80;0.90;;;;;;;;;;5012248;28;20042;-63
2022/10/29 11:00:50;;;;;;;2.83;1.13;;;;;;;;;;5008107;28;20325;-60
2022/10/29 11:03:33;;;;;;;2.15;1.02;;;;;;;;;;5010790;28;20037;-59
2022/10/29 11:06:25;;;;;;;2.35;1.10;;;;;;;;;;5022424;28;20069;-62
2022/10/29 11:09:09;;;;;;;1.58;0.90;;;;;;;;;;5010303;28;20060;-60
2022/10/29 11:11:49;;;;;;;1.85;0.90;;;;;;;;;;5008708;28;20038;-60
2022/10/29 11:14:20;;;;;;;5.13;1.75;;;;;;;;;;5006969;28;20038;-59
2022/10/29 11:16:49;;;;;;;2.35;1.05;;;;;;;;;;5011968;28;20038;-60
2022/10/29 11:19:20;;;;;;;1.75;1.00;;;;;;;;;;5009619;28;20120;-60
2022/10/29 11:22:00;;;;;;;3.10;1.00;;;;;;;;;;5004335;28;20477;-59
2022/10/29 11:24:36;;;;;;;2.83;1.02;;;;;;;;;;5023479;28;20043;-59
2022/10/29 11:27:26;;;;;;;2.22;1.00;;;;;;;;;;5027830;28;20497;-60
2022/10/29 11:30:03;;;;;;;1.75;0.80;;;;;;;;;;4996451;28;20502;-58
2022/10/29 11:33:05;;;;;;;2.45;1.10;;;;;;;;;;5011993;28;20501;-59
2022/10/29 11:35:40;;;;;;;1.85;1.00;;;;;;;;;;5011822;28;20065;-61
2022/10/29 11:38:15;;;;;;;2.72;0.90;;;;;;;;;;5012863;28;20038;-60
2022/10/29 11:41:04;;;;;;;1.75;0.98;;;;;;;;;;5014617;28;20469;-58
2022/10/29 11:43:31;;;;;;;7.70;1.30;;;;;;;;;;4997627;28;20067;-59
2022/10/29 11:46:01;;;;;;;5.53;1.23;;;;;;;;;;5013716;28;20117;-62
2022/10/29 11:48:40;;;;;;;2.88;1.10;;;;;;;;;;5028992;28;20022;-60
2022/10/29 11:51:11;;;;;;;3.63;1.02;;;;;;;;;;5012222;28;20042;-60
2022/10/29 11:53:48;;;;;;;1.85;1.02;;;;;;;;;;5017537;28;20034;-66
2022/10/29 11:56:25;;;;;;;3.33;1.20;;;;;;;;;;5016617;28;20042;-59
2022/10/29 11:58:56;;;;;;;4.47;1.10;;;;;;;;;;5007999;28;20171;-58
2022/10/29 12:01:31;;;;;;;2.67;1.17;;;;;;;;;;5004744;28;20048;-59
2022/10/29 12:04:19;;;;;;;2.45;1.20;;;;;;;;;;5006954;28;20493;-59
2022/10/29 12:07:09;;;;;;;2.50;1.23;;;;;;;;;;5005144;28;20565;-58
2022/10/29 12:09:59;;;;;;;2.63;1.30;;;;;;;;;;5014658;28;20080;-58
2022/10/29 12:12:43;;;;;;;3.72;1.60;;;;;;;;;;5014456;28;20156;-58
2022/10/29 12:15:30;;;;;;;4.32;1.20;;;;;;;;;;5009394;28;20473;-57
2022/10/29 12:18:01;;;;;;;2.47;1.30;;;;;;;;;;5013283;28;20131;-58
2022/10/29 12:21:04;;;;;;;5.60;1.42;;;;;;;;;;5008352;28;20049;-65
2022/10/29 12:23:49;;;;;;;3.97;1.20;;;;;;;;;;5005943;28;20033;-66
2022/10/29 12:26:27;;;;;;;2.15;1.15;;;;;;;;;;4999758;28;20113;-61
2022/10/29 12:29:10;;;;;;;2.22;1.20;;;;;;;;;;5010365;28;20042;-59
2022/10/29 12:31:49;;;;;;;2.13;1.13;;;;;;;;;;5006083;28;20121;-65
2022/10/29 12:34:36;;;;;;;5.18;1.17;;;;;;;;;;5010350;28;20034;-58
2022/10/29 12:37:17;;;;;;;4.75;1.65;;;;;;;;;;5005057;28;20076;-58
2022/10/29 12:40:11;;;;;;;2.80;1.33;;;;;;;;;;5003448;28;20485;-65
2022/10/29 12:42:37;;;;;;;2.85;1.17;;;;;;;;;;5001660;28;20046;-59
2022/10/29 12:45:06;;;;;;;3.58;1.30;;;;;;;;;;5009705;28;20030;-63
2022/10/29 12:48:06;;;;;;;6.82;1.42;;;;;;;;;;5013979;28;20042;-57
2022/10/29 12:50:57;;;;;;;2.67;1.20;;;;;;;;;;5008775;28;20097;-58
2022/10/29 12:53:41;;;;;;;7.32;1.35;;;;;;;;;;5013372;28;20071;-58
2022/10/29 12:56:07;;;;;;;3.28;1.52;;;;;;;;;;5010935;28;20088;-59
2022/10/29 12:58:41;;;;;;;6.32;1.38;;;;;;;;;;5021864;28;20041;-58
2022/10/29 13:01:30;;;;;;;2.78;1.25;;;;;;;;;;5007071;28;20101;-59
2022/10/29 13:03:55;;;;;;;3.40;1.20;;;;;;;;;;5006777;28;20091;-58
2022/10/29 13:06:42;;;;;;;4.05;1.40;;;;;;;;;;5013369;28;20477;-59
2022/10/29 13:09:13;;;;;;;2.20;1.23;;;;;;;;;;5004431;28;20054;-59
2022/10/29 13:11:50;;;;;;;4.80;1.35;;;;;;;;;;5003701;28;20080;-60
2022/10/29 13:14:26;;;;;;;2.88;1.20;;;;;;;;;;5011658;28;20370;-61
2022/10/29 13:16:52;;;;;;;3.28;1.20;;;;;;;;;;5002331;28;20045;-59
2022/10/29 13:19:28;;;;;;;2.25;1.10;;;;;;;;;;5004782;28;20087;-59
2022/10/29 13:21:58;;;;;;;6.15;1.42;;;;;;;;;;5012294;28;20042;-59
2022/10/29 13:24:24;;;;;;;3.40;1.50;;;;;;;;;;5009267;28;20042;-59
2022/10/29 13:26:55;;;;;;;3.53;1.35;;;;;;;;;;5008583;28;20030;-59
2022/10/29 13:29:39;;;;;;;3.05;1.15;;;;;;;;;;5011778;28;20046;-60
2022/10/29 13:32:05;;;;;;;5.72;1.30;;;;;;;;;;5007349;28;20026;-60
2022/10/29 13:34:54;;;;;;;2.65;1.27;;;;;;;;;;5007690;28;20083;-59
2022/10/29 13:37:37;;;;;;;2.85;1.20;;;;;;;;;;5012032;28;20038;-59
2022/10/29 13:40:20;;;;;;;3.53;1.35;;;;;;;;;;5011835;28;20042;-59
2022/10/29 13:43:08;;;;;;;3.70;1.40;;;;;;;;;;4997183;28;20070;-60
2022/10/29 13:45:36;;;;;;;3.05;1.25;;;;;;;;;;4996853;28;20057;-59
2022/10/29 13:48:04;;;;;;;5.38;1.42;;;;;;;;;;5003679;28;20038;-58
2022/10/29 13:50:30;;;;;;;3.08;1.30;;;;;;;;;;5016855;28;20105;-59
2022/10/29 13:52:58;;;;;;;2.50;1.25;;;;;;;;;;5011783;28;20048;-59
2022/10/29 13:55:24;;;;;;;2.95;1.20;;;;;;;;;;5006759;28;20037;-62
2022/10/29 13:58:03;;;;;;;2.38;1.00;;;;;;;;;;5010023;28;20112;-59
2022/10/29 14:00:29;;;;;;;2.88;1.27;;;;;;;;;;5008686;28;20061;-62
2022/10/29 14:03:05;;;;;;;4.55;1.52;;;;;;;;;;5013933;28;20068;-59
2022/10/29 14:05:41;;;;;;;2.67;1.15;;;;;;;;;;5014602;28;20041;-60
2022/10/29 14:08:12;;;;;;;2.50;1.13;;;;;;;;;;5011872;28;20046;-61
2022/10/29 14:10:38;;;;;;;2.15;1.10;;;;;;;;;;5014390;28;20065;-59
2022/10/29 14:13:09;;;;;;;3.15;1.50;;;;;;;;;;5014923;28;20034;-59
2022/10/29 14:15:37;;;;;;;2.13;1.10;;;;;;;;;;5014020;28;20485;-59
2022/10/29 14:18:36;;;;;;;3.00;1.27;;;;;;;;;;5015365;28;20042;-59
2022/10/29 14:21:04;;;;;;;3.03;1.20;;;;;;;;;;5003489;28;20421;-58
2022/10/29 14:23:31;;;;;;;3.75;1.33;;;;;;;;;;5013039;28;20042;-60
2022/10/29 14:25:59;;;;;;;5.32;1.90;;;;;;;;;;5015500;28;20754;-58
2022/10/29 14:28:25;;;;;;;8.45;1.45;;;;;;;;;;5014794;28;20030;-64
2022/10/29 14:31:10;;;;;;;5.00;1.30;;;;;;;;;;5015022;28;20076;-58
2022/10/29 14:33:37;;;;;;;4.68;1.33;;;;;;;;;;5016529;28;20092;-59
2022/10/29 14:36:10;;;;;;;6.00;1.45;;;;;;;;;;5015276;28;20105;-58
2022/10/29 14:38:55;;;;;;;2.53;1.35;;;;;;;;;;5012054;28;20399;-58
2022/10/29 14:41:21;;;;;;;3.90;1.60;;;;;;;;;;5015157;28;20053;-60
2022/10/29 14:44:04;;;;;;;4.65;1.33;;;;;;;;;;5016397;28;20042;-58
2022/10/29 14:46:32;;;;;;;8.93;1.65;;;;;;;;;;5015851;28;20046;-60
2022/10/29 14:49:10;;;;;;;6.63;1.88;;;;;;;;;;5016244;28;20038;-58
2022/10/29 14:51:39;;;;;;;4.20;1.60;;;;;;;;;;5016017;28;20037;-55
2022/10/29 14:54:06;;;;;;;3.28;1.40;;;;;;;;;;5015872;28;20041;-61
2022/10/29 14:56:37;;;;;;;2.58;1.20;;;;;;;;;;5012805;28;20042;-59
2022/10/29 14:59:09;;;;;;;4.80;1.85;;;;;;;;;;5010565;28;20039;-58
2022/10/29 15:01:51;;;;;;;6.55;1.67;;;;;;;;;;5014450;28;20034;-60
2022/10/29 15:04:25;;;;;;;5.13;1.40;;;;;;;;;;5004046;28;20034;-59
2022/10/29 15:06:53;;;;;;;2.95;1.35;;;;;;;;;;5014106;28;20069;-59